Time;durP1;ratioP1;P1;durP2;ratioP2;P2;SDS_P1;SDS_P2;PMS_P1;PMS_P2;Temp;Humidity;BMP_temperature;BMP_pressure;BME280_temperature;BME280_humidity;BME280_pressure;Samples;Min_cycle;Max_cycle;Signal;HPM_P1;HPM_P2
2022/06/23 00:02:06;;;;;;;;;;;25.90;42.30;;;30.04;26.73;101193.06;5113262;28;19949;-11
2022/06/23 00:04:41;;;;;;;;;;;25.90;42.30;;;30.05;26.76;101192.88;5113231;28;19916;-11
2022/06/23 00:07:15;;;;;;;;;;;25.90;42.30;;;30.09;26.77;101202.41;5111623;28;19922;-12
2022/06/23 00:09:48;;;;;;;;;;;25.90;42.30;;;30.04;26.87;101191.22;5094009;28;19920;-11
2022/06/23 00:12:26;;;;;;;;;;;25.90;42.30;;;30.05;26.84;101192.88;5113477;28;19962;-11
2022/06/23 00:14:56;;;;;;;;;;;25.90;42.30;;;30.07;26.90;101198.13;5113335;28;19916;-11
2022/06/23 00:17:28;;;;;;;;;;;25.90;42.30;;;30.09;26.85;101202.41;5094168;28;20015;-11
2022/06/23 00:19:55;;;;;;;;;;;25.90;42.30;;;30.08;26.79;101199.84;5113491;28;19945;-11
2022/06/23 00:22:24;;;;;;;;;;;25.90;42.30;;;30.07;26.85;101198.13;5097897;28;19916;-11
2022/06/23 00:24:56;;;;;;;;;;;25.80;42.30;;;30.02;26.89;101192.34;5116181;28;19923;-11
2022/06/23 00:27:27;;;;;;;;;;;25.90;42.30;;;30.03;26.83;101192.19;5098445;28;20283;-12
2022/06/23 00:29:56;;;;;;;;;;;25.90;42.40;;;30.05;26.97;101206.38;5096463;28;20273;-11
2022/06/23 00:32:22;;;;;;;;;;;25.90;42.40;;;30.07;26.87;101206.22;5116039;28;20378;-11
2022/06/23 00:34:56;;;;;;;;;;;25.90;42.30;;;30.06;26.91;101207.25;5098168;28;19915;-11
2022/06/23 00:37:23;;;;;;;;;;;25.80;42.30;;;30.02;26.88;101192.34;5097580;28;19916;-12
2022/06/23 00:39:51;;;;;;;;;;;25.90;42.40;;;30.02;26.80;101195.03;5097676;28;19919;-11
2022/06/23 00:42:48;;;;;;;;;;;25.90;42.40;;;30.02;26.77;101192.34;5115814;28;19923;-12
2022/06/23 00:45:47;;;;;;;;;;;25.80;42.30;;;30.05;26.88;101202.84;5104799;28;20007;-11
2022/06/23 00:48:31;;;;;;;;;;;25.80;42.30;;;30.04;26.98;101202.00;5115157;28;19951;-11
2022/06/23 00:51:07;;;;;;;;;;;25.80;42.30;;;30.00;26.86;101197.03;5097922;28;20248;-11
2022/06/23 00:53:43;;;;;;;;;;;25.90;42.40;;;30.02;26.92;101197.72;5115725;28;19923;-11
2022/06/23 00:56:48;;;;;;;;;;;25.80;42.30;;;30.04;26.85;101209.25;5116014;28;19915;-12
2022/06/23 00:59:42;;;;;;;;;;;25.80;42.30;;;30.03;26.94;101204.84;5098023;28;19915;-12
2022/06/23 01:02:12;;;;;;;;;;;25.90;42.40;;;29.96;27.05;101193.78;5097994;28;19916;-11
2022/06/23 01:04:46;;;;;;;;;;;25.80;42.40;;;29.98;26.85;101201.72;5097261;28;20049;-11
2022/06/23 01:07:28;;;;;;;;;;;25.80;42.30;;;30.02;27.04;101211.22;5095574;28;19923;-12
2022/06/23 01:10:13;;;;;;;;;;;25.80;42.40;;;29.95;26.84;101208.25;5115488;28;19915;-11
2022/06/23 01:13:27;;;;;;;;;;;25.90;42.40;;;30.01;26.95;101223.84;5115383;28;19916;-12
2022/06/23 01:16:07;;;;;;;;;;;25.80;42.40;;;30.01;26.94;101221.16;5084390;28;19933;-12
2022/06/23 01:18:41;;;;;;;;;;;25.80;42.40;;;30.01;26.94;101214.94;5097666;28;19965;-11
2022/06/23 01:21:14;;;;;;;;;;;25.80;42.90;;;30.01;27.13;101209.53;5097163;28;19923;-12
2022/06/23 01:23:55;;;;;;;;;;;25.80;42.40;;;29.99;27.00;101204.28;5115598;28;20404;-11
2022/06/23 01:26:26;;;;;;;;;;;25.80;42.40;;;30.02;26.98;101205.81;5097032;28;19916;-12
2022/06/23 01:29:12;;;;;;;;;;;25.80;42.40;;;30.01;26.93;101204.97;5115010;28;19931;-12
2022/06/23 01:31:46;;;;;;;;;;;25.80;42.40;;;30.00;27.04;101213.22;5095736;28;20342;-11
2022/06/23 01:34:29;;;;;;;;;;;25.80;42.40;;;29.99;27.00;101209.69;5115443;28;19915;-11
2022/06/23 01:37:01;;;;;;;;;;;25.80;42.40;;;29.96;26.90;101211.81;5096628;28;19915;-11
2022/06/23 01:39:40;;;;;;;;;;;25.80;42.40;;;29.98;26.97;101213.34;5113674;28;19965;-11
2022/06/23 01:42:23;;;;;;;;;;;25.80;42.40;;;29.96;26.90;101206.44;5115588;28;19916;-11
2022/06/23 01:45:06;;;;;;;;;;;25.80;42.40;;;29.98;26.88;101205.25;5096950;28;19916;-12
2022/06/23 01:47:35;;;;;;;;;;;25.80;42.40;;;29.98;27.03;101210.66;5096525;28;20405;-12
2022/06/23 01:50:14;;;;;;;;;;;25.80;42.40;;;30.00;27.04;101210.50;5114775;28;19915;-11
2022/06/23 01:52:41;;;;;;;;;;;25.80;42.50;;;29.98;27.00;101220.59;5115063;28;19962;-11
2022/06/23 01:55:24;;;;;;;;;;;25.80;42.50;;;29.93;27.02;101210.25;5114787;28;19978;-11
2022/06/23 01:57:56;;;;;;;;;;;25.80;42.50;;;29.98;27.03;101216.06;5096392;28;19919;-11
2022/06/23 02:00:24;;;;;;;;;;;25.80;42.50;;;29.96;27.21;101207.25;5114923;28;19919;-11
2022/06/23 02:02:56;;;;;;;;;;;25.80;42.50;;;29.97;27.06;101206.28;5114687;28;20011;-11
2022/06/23 02:05:49;;;;;;;;;;;25.80;42.50;;;29.98;27.07;101209.81;5097201;28;19923;-11
2022/06/23 02:08:43;;;;;;;;;;;25.80;42.50;;;29.96;27.12;101214.50;5095955;28;19915;-11
2022/06/23 02:11:28;;;;;;;;;;;25.80;42.50;;;29.96;27.06;101222.59;5085093;28;19916;-12
2022/06/23 02:14:13;;;;;;;;;;;25.80;42.50;;;29.96;27.12;101228.00;5095355;28;19916;-11
2022/06/23 02:16:52;;;;;;;;;;;25.80;42.50;;;29.95;27.07;101223.59;5113979;28;19923;-11
2022/06/23 02:19:49;;;;;;;;;;;25.80;42.50;;;29.90;27.20;101215.94;5094016;28;20389;-11
2022/06/23 02:22:34;;;;;;;;;;;25.80;42.50;;;29.88;27.19;101221.47;5114942;28;19923;-12
2022/06/23 02:25:03;;;;;;;;;;;25.80;42.60;;;29.92;27.10;101239.06;5114274;28;19946;-11
2022/06/23 02:27:42;;;;;;;;;;;25.80;42.50;;;29.93;26.94;101242.59;5114150;28;19916;-12
2022/06/23 02:30:29;;;;;;;;;;;25.80;42.60;;;29.93;27.03;101232.66;5094309;28;19923;-12
2022/06/23 02:33:04;;;;;;;;;;;25.80;43.10;;;29.94;27.03;101241.63;5114162;28;19922;-11
2022/06/23 02:35:45;;;;;;;;;;;25.80;42.50;;;29.92;27.09;101247.16;5114143;28;20061;-11
2022/06/23 02:38:19;;;;;;;;;;;25.80;42.60;;;29.87;27.16;101235.97;5113910;28;19948;-11
2022/06/23 02:40:48;;;;;;;;;;;25.80;42.60;;;29.93;27.16;101242.59;5114341;28;19939;-12
2022/06/23 02:43:21;;;;;;;;;;;25.80;42.60;;;29.88;27.05;101243.03;5114022;28;19915;-11
2022/06/23 02:46:03;;;;;;;;;;;25.80;42.60;;;29.89;27.11;101241.22;5113961;28;20002;-11
2022/06/23 02:48:56;;;;;;;;;;;25.80;42.60;;;29.94;27.01;101252.41;5096098;28;20260;-11
2022/06/23 02:51:40;;;;;;;;;;;25.80;42.60;;;29.92;27.13;101252.53;5114024;28;20359;-12
2022/06/23 02:54:14;;;;;;;;;;;25.80;42.60;;;29.89;27.19;101250.13;5113756;28;20395;-11
2022/06/23 02:56:48;;;;;;;;;;;25.80;42.60;;;29.90;27.08;101257.25;5113500;28;20364;-12
2022/06/23 02:59:20;;;;;;;;;;;25.80;42.60;;;29.92;27.09;101254.38;5113748;28;19916;-12
2022/06/23 03:02:04;;;;;;;;;;;25.80;42.60;;;29.92;27.17;101252.53;5095543;28;19915;-11
2022/06/23 03:04:33;;;;;;;;;;;25.80;42.60;;;29.89;27.05;101244.75;5095547;28;20014;-11
2022/06/23 03:07:03;;;;;;;;;;;25.80;42.60;;;29.90;27.14;101235.66;5093456;28;19963;-11
2022/06/23 03:09:35;;;;;;;;;;;25.80;42.60;;;29.91;27.07;101248.13;5093616;28;20368;-11
2022/06/23 03:12:13;;;;;;;;;;;25.80;42.60;;;29.95;27.22;101247.84;5093933;28;19923;-12
2022/06/23 03:14:42;;;;;;;;;;;25.80;42.60;;;29.96;27.09;101245.00;5113932;28;19939;-11
2022/06/23 03:17:24;;;;;;;;;;;25.80;42.60;;;29.98;27.05;101244.88;5111334;28;19919;-11
2022/06/23 03:19:59;;;;;;;;;;;25.80;42.50;;;29.92;27.21;101235.50;5113403;28;19941;-11
2022/06/23 03:22:34;;;;;;;;;;;25.80;42.50;;;29.91;27.03;101228.44;5113819;28;19920;-11
2022/06/23 03:25:11;;;;;;;;;;;25.90;42.60;;;29.97;27.25;101238.63;5095305;28;19965;-11
2022/06/23 03:27:42;;;;;;;;;;;25.90;42.50;;;30.03;27.07;101250.66;5113735;28;20002;-11
2022/06/23 03:30:22;;;;;;;;;;;25.90;42.50;;;30.03;27.01;101246.13;5113767;28;19919;-11
2022/06/23 03:32:57;;;;;;;;;;;26.00;42.50;;;29.99;27.12;101233.06;5094185;28;19920;-12
2022/06/23 03:35:46;;;;;;;;;;;26.00;42.50;;;30.04;27.17;101245.13;5094992;28;19916;-11
2022/06/23 03:41:35;;;;;;;;;;;26.00;42.30;;;30.07;27.06;101236.75;5112058;28;19988;-11
2022/06/23 03:43:58;;;;;;;;;;;26.10;42.30;;;30.14;26.91;101239.72;5095944;28;19961;-11
2022/06/23 03:46:27;;;;;;;;;;;26.10;42.20;;;30.17;26.94;101239.44;5113177;28;20369;-11
2022/06/23 03:49:14;;;;;;;;;;;26.20;42.20;;;30.25;26.99;101244.06;5093646;28;19923;-11
2022/06/23 03:51:49;;;;;;;;;;;26.20;42.20;;;30.26;26.97;101248.47;5094916;28;20382;-11
2022/06/23 03:54:20;;;;;;;;;;;26.20;42.20;;;30.28;27.03;101244.63;5095110;28;19916;-12
2022/06/23 03:56:53;;;;;;;;;;;26.30;42.20;;;30.27;26.90;101233.97;5098162;28;19923;-12
2022/06/23 03:59:22;;;;;;;;;;;26.30;42.10;;;30.35;26.81;101236.78;5098419;28;20372;-11
2022/06/23 04:01:52;;;;;;;;;;;26.40;42.10;;;30.36;26.79;101227.75;5116583;28;19964;-11
2022/06/23 04:04:21;;;;;;;;;;;26.40;42.00;;;30.44;27.19;101235.09;5116987;28;19941;-11
2022/06/23 04:06:48;;;;;;;;;;;26.50;41.90;;;30.43;26.70;101225.28;5116721;28;19922;-12
2022/06/23 04:09:18;;;;;;;;;;;26.50;41.90;;;30.50;26.65;101231.78;5116350;28;19922;-11
2022/06/23 04:11:46;;;;;;;;;;;26.60;41.90;;;30.53;26.67;101231.50;5114593;28;19929;-11
2022/06/23 04:14:22;;;;;;;;;;;26.60;41.80;;;30.60;26.86;101237.13;5116362;28;19916;-11
2022/06/23 04:16:50;;;;;;;;;;;26.60;41.70;;;30.57;26.77;101223.94;5116203;28;19938;-12
2022/06/23 04:19:35;;;;;;;;;;;26.70;41.70;;;30.63;26.71;101237.69;5116281;28;19922;-11
2022/06/23 04:22:24;;;;;;;;;;;26.70;41.70;;;30.67;26.83;101239.09;5116220;28;19916;-11
2022/06/23 04:24:54;;;;;;;;;;;26.70;41.60;;;30.66;26.48;101242.78;5102202;28;19916;-11
2022/06/23 04:27:24;;;;;;;;;;;26.80;41.60;;;30.69;26.43;101238.94;5097691;28;19921;-12
2022/06/23 04:29:52;;;;;;;;;;;26.80;41.50;;;30.77;26.68;101252.53;5116473;28;19922;-11
2022/06/23 04:32:28;;;;;;;;;;;26.80;41.50;;;30.80;26.55;101252.22;5097525;28;19915;-11
2022/06/23 04:34:58;;;;;;;;;;;26.90;41.50;;;30.83;26.62;101259.19;5116097;28;19916;-11
2022/06/23 04:37:36;;;;;;;;;;;26.90;41.50;;;30.80;26.57;101249.50;5116112;28;19923;-12
2022/06/23 04:40:11;;;;;;;;;;;26.90;41.50;;;30.83;26.56;101251.09;5116027;28;19990;-12
2022/06/23 04:42:44;;;;;;;;;;;26.90;41.50;;;30.90;26.62;101262.97;5097786;28;19923;-11
2022/06/23 04:45:31;;;;;;;;;;;27.00;41.50;;;30.94;26.54;101268.91;5098009;28;19945;-12
2022/06/23 04:47:58;;;;;;;;;;;27.00;41.50;;;30.91;26.63;101259.28;5095809;28;19916;-11
2022/06/23 04:50:42;;;;;;;;;;;27.00;41.40;;;30.90;26.50;101260.25;5095310;28;19916;-12
2022/06/23 04:53:16;;;;;;;;;;;27.00;41.40;;;30.96;26.38;101267.81;5115747;28;19922;-12
2022/06/23 04:55:42;;;;;;;;;;;27.10;41.90;;;31.03;26.29;101257.25;5097719;28;19919;-12
2022/06/23 04:58:22;;;;;;;;;;;27.10;41.40;;;31.05;26.42;101259.78;5097389;28;19916;-11
2022/06/23 05:00:50;;;;;;;;;;;27.10;41.30;;;31.10;26.41;101268.28;5115687;28;20375;-11
2022/06/23 05:03:25;;;;;;;;;;;27.20;41.20;;;31.15;26.38;101269.50;5113150;28;19951;-11
2022/06/23 05:05:59;;;;;;;;;;;27.30;41.10;;;31.18;26.35;101268.38;5096375;28;19915;-11
2022/06/23 05:08:29;;;;;;;;;;;27.30;41.00;;;31.15;26.26;101269.50;5114588;28;19984;-11
2022/06/23 05:11:23;;;;;;;;;;;27.40;41.00;;;31.25;26.28;101279.41;5096259;28;19916;-12
2022/06/23 05:13:53;;;;;;;;;;;27.40;40.90;;;31.24;26.28;101273.16;5097667;28;20356;-12
2022/06/23 05:16:39;;;;;;;;;;;27.50;40.90;;;31.33;26.21;101280.34;5096758;28;19915;-11
2022/06/23 05:19:10;;;;;;;;;;;27.50;40.80;;;31.32;26.40;101280.50;5096889;28;19916;-12
2022/06/23 05:21:52;;;;;;;;;;;27.50;40.80;;;31.39;25.89;101289.66;5097150;28;19916;-12
2022/06/23 05:24:20;;;;;;;;;;;27.50;40.70;;;31.35;25.97;101275.63;5096761;28;19923;-11
2022/06/23 05:26:54;;;;;;;;;;;27.50;40.70;;;31.40;26.09;101285.97;5096689;28;20367;-11
2022/06/23 05:29:20;;;;;;;;;;;27.60;40.70;;;31.50;26.07;101296.72;5114792;28;19915;-12
2022/06/23 05:31:47;;;;;;;;;;;27.60;40.60;;;31.52;26.09;101283.91;5114908;28;20007;-11
2022/06/23 05:34:45;;;;;;;;;;;27.60;40.60;;;31.55;26.13;101289.84;5096027;28;19915;-11
2022/06/23 05:37:11;;;;;;;;;;;27.70;40.60;;;31.57;25.79;101282.47;5095850;28;19915;-11
2022/06/23 05:39:44;;;;;;;;;;;27.70;40.60;;;31.57;25.87;101282.47;5115204;28;19923;-11
2022/06/23 05:42:16;;;;;;;;;;;27.70;40.60;;;31.65;26.10;101291.63;5096714;28;20282;-11
2022/06/23 05:44:56;;;;;;;;;;;27.70;40.50;;;31.67;25.70;101279.66;5097355;28;19915;-11
2022/06/23 05:47:23;;;;;;;;;;;27.80;40.50;;;31.66;25.91;101277.97;5114757;28;19916;-12
2022/06/23 05:49:55;;;;;;;;;;;27.80;40.50;;;31.72;25.71;101276.50;5114730;28;19915;-11
2022/06/23 05:52:50;;;;;;;;;;;27.80;40.50;;;31.74;26.08;101280.75;5096460;28;19920;-11
2022/06/23 05:55:21;;;;;;;;;;;27.80;40.50;;;31.76;25.63;101273.31;5107444;28;19916;-11
2022/06/23 05:57:53;;;;;;;;;;;27.80;40.50;;;31.73;25.71;101268.22;5114230;28;19996;-11
2022/06/23 06:00:26;;;;;;;;;;;27.80;40.40;;;31.76;25.69;101258.97;5114291;28;19915;-11
2022/06/23 06:03:04;;;;;;;;;;;27.80;40.40;;;31.85;25.85;101274.22;5114494;28;20489;-11
2022/06/23 06:05:38;;;;;;;;;;;27.90;40.40;;;31.83;25.76;101275.41;5114484;28;19923;-12
2022/06/23 06:08:12;;;;;;;;;;;27.90;40.40;;;31.88;25.53;101282.03;5114291;28;19916;-11
2022/06/23 06:10:38;;;;;;;;;;;27.90;40.30;;;31.93;25.55;101279.69;5095995;28;19923;-11
2022/06/23 06:13:07;;;;;;;;;;;27.90;40.30;;;31.97;25.62;101276.69;5113929;28;20052;-12
2022/06/23 06:15:36;;;;;;;;;;;28.00;40.40;;;31.97;25.78;101276.69;5113926;28;20366;-12
2022/06/23 06:18:13;;;;;;;;;;;28.00;40.30;;;31.95;25.42;101280.38;5094343;28;19923;-12
2022/06/23 06:20:39;;;;;;;;;;;28.00;40.30;;;32.00;25.29;101282.63;5094287;28;19916;-12
2022/06/23 06:23:09;;;;;;;;;;;28.10;40.30;;;32.05;25.35;101274.03;5114098;28;19916;-12
2022/06/23 06:25:38;;;;;;;;;;;28.10;40.20;;;32.10;25.25;101274.44;5114619;28;19965;-12
2022/06/23 06:28:18;;;;;;;;;;;28.20;40.20;;;32.09;25.22;101270.03;5113938;28;19923;-12
2022/06/23 06:30:54;;;;;;;;;;;28.20;40.20;;;32.16;25.16;101271.09;5114153;28;19916;-11
2022/06/23 06:33:29;;;;;;;;;;;28.20;40.10;;;32.19;25.18;101273.47;5095022;28;19916;-11
2022/06/23 06:35:55;;;;;;;;;;;28.20;40.00;;;32.20;25.19;101261.63;5095523;28;20321;-11
2022/06/23 06:38:22;;;;;;;;;;;28.30;40.00;;;32.25;24.99;101266.56;5113752;28;19916;-12
2022/06/23 06:40:51;;;;;;;;;;;28.30;40.00;;;32.26;25.17;101265.56;5112515;28;19920;-11
2022/06/23 06:43:20;;;;;;;;;;;28.30;40.00;;;32.29;25.47;101263.41;5113398;28;20283;-12
2022/06/23 06:45:46;;;;;;;;;;;28.30;40.00;;;32.30;25.31;101261.53;5113363;28;19916;-12
2022/06/23 06:48:17;;;;;;;;;;;28.30;39.90;;;32.30;25.36;101258.81;5113128;28;19923;-12
2022/06/23 06:50:46;;;;;;;;;;;28.40;39.90;;;32.33;25.33;101258.50;5113623;28;19915;-12
2022/06/23 06:53:19;;;;;;;;;;;28.40;39.90;;;32.40;25.15;101264.97;5113276;28;19915;-12
2022/06/23 06:55:51;;;;;;;;;;;28.40;39.80;;;32.40;24.88;101253.28;5113961;28;19919;-12
2022/06/23 06:58:33;;;;;;;;;;;28.40;39.80;;;32.42;25.11;101260.22;5094817;28;20322;-13
2022/06/23 07:01:14;;;;;;;;;;;28.50;39.80;;;32.47;25.37;101263.28;5078616;28;19922;-11
2022/06/23 07:03:43;;;;;;;;;;;28.40;39.80;;;32.49;24.75;101268.56;5113505;28;19923;-11
2022/06/23 07:06:36;;;;;;;;;;;28.50;39.80;;;32.49;24.95;101258.59;5113524;28;19964;-11
2022/06/23 07:09:12;;;;;;;;;;;28.50;39.70;;;32.53;25.09;101264.53;5094340;28;19916;-11
2022/06/23 07:11:54;;;;;;;;;;;28.50;39.70;;;32.53;25.18;101256.41;5095848;28;19915;-12
2022/06/23 07:14:27;;;;;;;;;;;28.50;39.60;;;32.52;24.91;101251.16;5095546;28;19916;-12
2022/06/23 07:17:23;;;;;;;;;;;28.50;39.60;;;32.60;25.14;101268.25;5095059;28;19915;-12
2022/06/23 07:19:53;;;;;;;;;;;28.50;39.60;;;32.59;25.14;101266.56;5101794;28;19915;-12
2022/06/23 07:22:26;;;;;;;;;;;28.60;39.70;;;32.64;24.71;101266.09;5095049;28;19968;-12
2022/06/23 07:25:01;;;;;;;;;;;28.60;39.70;;;32.64;24.91;101266.94;5113806;28;20018;-12
2022/06/23 07:27:36;;;;;;;;;;;28.60;39.60;;;32.65;25.03;101265.09;5113592;28;20336;-12
2022/06/23 07:30:06;;;;;;;;;;;28.60;39.60;;;32.65;24.78;101265.94;5111541;28;19915;-12
2022/06/23 07:32:52;;;;;;;;;;;28.60;39.60;;;32.61;25.04;101255.56;5098427;28;20291;-12
2022/06/23 07:35:29;;;;;;;;;;;28.60;39.70;;;32.63;24.87;101261.72;5117183;28;19941;-12
2022/06/23 07:38:06;;;;;;;;;;;28.60;39.70;;;32.67;24.70;101263.09;5098568;28;19915;-12
2022/06/23 07:40:39;;;;;;;;;;;28.60;39.70;;;32.63;24.70;101270.69;5098506;28;19916;-12
2022/06/23 07:43:14;;;;;;;;;;;28.60;39.70;;;32.62;24.62;101251.91;5116635;28;19965;-12
2022/06/23 07:45:46;;;;;;;;;;;28.50;39.60;;;32.64;24.96;101253.41;5097994;28;19968;-12
2022/06/23 07:48:12;;;;;;;;;;;28.60;39.70;;;32.69;25.00;101266.47;5098202;28;20359;-12
2022/06/23 07:50:38;;;;;;;;;;;28.60;39.70;;;32.69;24.63;101274.59;5116570;28;19950;-12
2022/06/23 07:53:05;;;;;;;;;;;28.60;39.70;;;32.65;24.62;101271.38;5116845;28;20086;-12
2022/06/23 07:55:36;;;;;;;;;;;28.60;39.70;;;32.70;24.79;101275.47;5096245;28;19963;-12
2022/06/23 07:58:02;;;;;;;;;;;28.60;39.70;;;32.66;24.85;101273.06;5093844;28;19999;-12
2022/06/23 08:00:29;;;;;;;;;;;28.60;39.70;;;32.71;24.78;101274.44;5116399;28;20429;-12
2022/06/23 08:03:00;;;;;;;;;;;28.60;39.80;;;32.68;24.63;101268.34;5116337;28;20268;-12
2022/06/23 08:05:49;;;;;;;;;;;28.50;39.70;;;32.70;24.51;101278.16;5097094;28;19954;-13
2022/06/23 08:08:25;;;;;;;;;;;28.50;39.80;;;32.66;24.62;101275.78;5097326;28;19931;-13
2022/06/23 08:12:53;;;;;;;;;;;28.50;39.80;;;32.62;24.78;101268.97;5097947;28;19923;-13
2022/06/23 08:13:41;;;;;;;;;;;28.50;39.80;;;32.66;24.83;101275.78;5101060;28;19916;-13
2022/06/23 08:19:34;;;;;;;;;;;28.50;39.90;;;32.64;24.98;101277.78;5098646;28;19996;-13
2022/06/23 08:22:17;;;;;;;;;;;28.50;39.80;;;32.56;24.99;101274.16;5033106;28;19917;-13
2022/06/23 08:24:45;;;;;;;;;;;28.50;39.90;;;32.62;24.70;101281.69;5089274;28;20425;-13
2022/06/23 08:27:14;;;;;;;;;;;28.40;39.90;;;32.57;24.81;101268.59;5079342;28;19916;-13
2022/06/23 08:29:46;;;;;;;;;;;28.40;40.00;;;32.55;24.67;101261.66;5097760;28;19915;-13
2022/06/23 08:32:12;;;;;;;;;;;28.40;40.00;;;32.59;24.82;101266.56;5116522;28;19916;-13
2022/06/23 08:34:43;;;;;;;;;;;28.40;40.00;;;32.53;24.97;101255.53;5116398;28;20014;-13
2022/06/23 08:37:16;;;;;;;;;;;28.30;40.00;;;32.54;25.03;101254.53;5097899;28;20384;-13
2022/06/23 08:39:52;;;;;;;;;;;28.30;40.10;;;32.51;24.75;101250.28;5097731;28;20265;-13
2022/06/23 08:42:23;;;;;;;;;;;28.30;40.10;;;32.53;24.93;101252.81;5115708;28;20070;-13
2022/06/23 08:44:58;;;;;;;;;;;28.30;40.20;;;32.52;25.04;101251.16;5115788;28;20057;-13
2022/06/23 08:47:36;;;;;;;;;;;28.20;40.20;;;32.47;25.01;101254.34;5097501;28;19919;-13
2022/06/23 08:50:19;;;;;;;;;;;28.20;40.30;;;32.37;24.82;101231.97;5115993;28;19938;-13
2022/06/23 08:53:23;;;;;;;;;;;28.10;40.30;;;32.42;25.05;101241.28;5113859;28;19953;-13
2022/06/23 08:55:56;;;;;;;;;;;28.10;40.40;;;32.35;24.91;101242.94;5115401;28;19916;-13
2022/06/23 08:58:41;;;;;;;;;;;28.00;40.40;;;32.29;24.88;101247.16;5096766;28;20386;-13
2022/06/23 09:01:19;;;;;;;;;;;28.00;40.40;;;32.30;25.19;101243.44;5097108;28;20015;-13
2022/06/23 09:03:48;;;;;;;;;;;28.00;40.50;;;32.28;25.08;101245.44;5114253;28;19947;-14
2022/06/23 09:06:37;;;;;;;;;;;28.00;40.60;;;32.25;25.10;101245.78;5114996;28;20279;-13
2022/06/23 09:09:15;;;;;;;;;;;27.90;40.60;;;32.18;25.09;101233.91;5115922;28;19947;-13
2022/06/23 09:12:06;;;;;;;;;;;27.90;40.70;;;32.15;25.00;101231.50;5113713;28;19919;-15
2022/06/23 09:15:08;;;;;;;;;;;27.90;40.70;;;32.17;25.52;101243.03;5113138;28;20364;-13
2022/06/23 09:17:43;;;;;;;;;;;27.80;40.70;;;32.09;25.20;101234.84;5101547;28;19922;-14
2022/06/23 09:20:46;;;;;;;;;;;27.80;40.80;;;32.12;25.11;101250.78;5113528;28;19922;-14
2022/06/23 09:23:16;;;;;;;;;;;27.80;40.90;;;32.08;25.47;101238.59;5113356;28;20252;-13
2022/06/23 09:25:48;;;;;;;;;;;27.70;40.90;;;32.06;25.17;101241.44;5094630;28;19963;-14
2022/06/23 09:28:18;;;;;;;;;;;27.70;41.00;;;32.04;25.48;101238.00;5096643;28;19924;-13
2022/06/23 09:30:52;;;;;;;;;;;27.70;41.00;;;32.02;25.39;101229.19;5096714;28;20271;-13
2022/06/23 09:33:37;;;;;;;;;;;27.70;41.00;;;31.94;25.33;101224.59;5114986;28;19916;-13
2022/06/23 09:36:33;;;;;;;;;;;27.60;41.00;;;31.96;25.64;101232.56;5114731;28;19927;-12
2022/06/23 09:39:20;;;;;;;;;;;27.60;41.10;;;31.93;25.65;101232.88;5114938;28;19916;-13
2022/06/23 09:41:51;;;;;;;;;;;27.60;41.10;;;31.90;25.68;101230.50;5114761;28;19980;-13
2022/06/23 09:44:39;;;;;;;;;;;27.50;41.10;;;31.89;25.37;101229.66;5114910;28;19915;-13
2022/06/23 09:47:11;;;;;;;;;;;27.50;41.10;;;31.86;25.88;101216.44;5096239;28;20333;-12
2022/06/23 09:49:57;;;;;;;;;;;27.50;41.20;;;31.82;25.57;101206.09;5114717;28;20055;-12
2022/06/23 09:52:55;;;;;;;;;;;27.50;41.20;;;31.83;25.66;101211.34;5113743;28;19965;-12
2022/06/23 09:55:37;;;;;;;;;;;27.50;41.20;;;31.83;25.69;101215.91;5100014;28;19984;-12
2022/06/23 09:58:32;;;;;;;;;;;27.50;41.30;;;31.80;25.73;101217.06;5114401;28;20310;-12
2022/06/23 10:01:13;;;;;;;;;;;27.50;41.30;;;31.70;25.68;101202.81;5110114;28;20329;-12
2022/06/23 10:04:07;;;;;;;;;;;27.50;41.30;;;31.76;25.75;101221.94;5114575;28;19929;-12
2022/06/23 10:06:55;;;;;;;;;;;27.50;41.40;;;31.74;25.75;101218.56;5095575;28;20014;-12
2022/06/23 10:09:33;;;;;;;;;;;27.50;41.40;;;31.71;25.96;101216.16;5096006;28;20424;-12
2022/06/23 10:12:36;;;;;;;;;;;27.40;41.40;;;31.72;25.63;101215.16;5114279;28;19955;-12
2022/06/23 10:15:05;;;;;;;;;;;27.40;41.50;;;31.71;25.99;101207.19;5114182;28;19938;-12
2022/06/23 10:17:53;;;;;;;;;;;27.50;41.50;;;31.71;26.10;101199.06;5114296;28;20373;-12
2022/06/23 10:20:39;;;;;;;;;;;27.50;41.50;;;31.69;26.04;101193.88;5114093;28;19959;-12
2022/06/23 10:23:30;;;;;;;;;;;27.40;41.50;;;31.69;25.87;101193.88;5114727;28;19915;-12
2022/06/23 10:26:25;;;;;;;;;;;27.40;41.60;;;31.66;26.02;101191.47;5093842;28;20390;-12
2022/06/23 10:29:19;;;;;;;;;;;27.40;41.60;;;31.61;25.76;101182.13;5095898;28;20548;-12
2022/06/23 10:32:03;;;;;;;;;;;27.40;41.60;;;31.57;25.94;101179.75;5114670;28;19922;-12
2022/06/23 10:34:39;;;;;;;;;;;27.40;41.60;;;31.64;25.73;101189.91;5114431;28;20278;-12
2022/06/23 10:37:45;;;;;;;;;;;27.40;41.60;;;31.64;25.71;101184.50;5094848;28;19946;-12
2022/06/23 10:40:41;;;;;;;;;;;27.40;41.60;;;31.63;26.20;101180.97;5075228;28;19916;-12
2022/06/23 10:43:41;;;;;;;;;;;27.40;41.60;;;31.61;25.90;101184.81;5113530;28;19915;-12
2022/06/23 10:46:07;;;;;;;;;;;27.40;41.60;;;31.61;26.08;101182.13;5094655;28;20378;-12
2022/06/23 10:48:48;;;;;;;;;;;27.30;41.60;;;31.59;26.13;101174.16;5113651;28;19915;-12
2022/06/23 10:51:42;;;;;;;;;;;27.30;41.60;;;31.61;26.11;101166.78;5095378;28;19919;-12
2022/06/23 10:54:45;;;;;;;;;;;27.40;41.60;;;31.58;25.83;101170.63;5113391;28;19927;-12
2022/06/23 10:57:35;;;;;;;;;;;27.30;41.60;;;31.56;25.94;101166.41;5113431;28;19938;-12
2022/06/23 11:00:06;;;;;;;;;;;27.40;41.60;;;31.56;26.11;101161.00;5113542;28;19916;-12
2022/06/23 11:02:52;;;;;;;;;;;27.30;41.60;;;31.54;26.07;101162.97;5113364;28;20011;-12
2022/06/23 11:05:23;;;;;;;;;;;27.40;41.60;;;31.57;26.00;101163.53;5113172;28;20002;-12
2022/06/23 11:08:13;;;;;;;;;;;27.40;41.60;;;31.58;26.16;101167.09;5095163;28;19920;-12
2022/06/23 11:10:51;;;;;;;;;;;27.40;41.60;;;31.55;25.93;101152.00;5094347;28;19923;-12
2022/06/23 11:13:49;;;;;;;;;;;27.30;41.50;;;31.56;25.86;101153.72;5113419;28;19922;-12
2022/06/23 11:16:19;;;;;;;;;;;27.30;41.50;;;31.55;25.90;101154.72;5025224;28;19919;-13
2022/06/23 11:18:55;;;;;;;;;;;27.40;41.60;;;31.56;26.11;101152.88;5113247;28;19928;-13
2022/06/23 11:21:31;;;;;;;;;;;27.40;41.60;;;31.55;25.87;101148.47;5093402;28;20278;-13
2022/06/23 11:24:18;;;;;;;;;;;27.30;41.50;;;31.56;26.19;101156.44;5113239;28;19916;-13
2022/06/23 11:27:25;;;;;;;;;;;27.40;41.50;;;31.55;25.90;101157.41;5112436;28;19930;-11
2022/06/23 11:29:58;;;;;;;;;;;27.30;41.60;;;31.54;26.31;101150.34;5010764;28;19917;-11
2022/06/23 11:32:39;;;;;;;;;;;27.30;41.80;;;31.55;26.21;101151.19;5017515;28;20018;-11
2022/06/23 11:35:23;;;;;;;;;;;27.40;41.90;;;31.56;26.13;101147.47;5113109;28;20260;-11
2022/06/23 11:38:06;;;;;;;;;;;27.40;41.80;;;31.56;26.26;101152.88;5112542;28;20256;-11
2022/06/23 11:40:57;;;;;;;;;;;27.40;41.90;;;31.58;26.37;101154.41;5094730;28;19915;-11
2022/06/23 11:43:59;;;;;;;;;;;27.40;41.80;;;31.54;26.24;101134.13;5112798;28;19916;-11
2022/06/23 11:46:34;;;;;;;;;;;27.40;41.70;;;31.51;26.41;101137.13;5113069;28;20321;-11
2022/06/23 11:49:25;;;;;;;;;;;27.40;41.70;;;31.52;26.24;101127.16;5112865;28;19915;-11
2022/06/23 11:52:13;;;;;;;;;;;27.40;41.70;;;31.57;26.30;101141.06;5112812;28;20402;-11
2022/06/23 11:54:48;;;;;;;;;;;27.40;41.70;;;31.56;26.04;101136.66;5092073;28;19959;-11
2022/06/23 11:57:42;;;;;;;;;;;27.40;41.70;;;31.56;25.94;101137.50;5110795;28;19953;-12
2022/06/23 12:00:17;;;;;;;;;;;27.40;41.60;;;31.56;26.12;101136.66;5110628;28;19922;-13
2022/06/23 12:03:09;;;;;;;;;;;27.40;41.60;;;31.56;26.28;101125.84;5091165;28;19945;-11
2022/06/23 12:05:41;;;;;;;;;;;27.40;41.60;;;31.57;26.05;101131.09;5080346;28;20386;-11